Time;durP1;ratioP1;P1;durP2;ratioP2;P2;SDS_P1;SDS_P2;PMS_P1;PMS_P2;Temp;Humidity;BMP_temperature;BMP_pressure;BME280_temperature;BME280_humidity;BME280_pressure;Samples;Min_cycle;Max_cycle;Signal;HPM_P1;HPM_P2
2022/08/05 00:00:45;;;;;;;14.82;7.28;;;19.80;99.90;;;;;;5090574;28;20114;-80
2022/08/05 00:03:10;;;;;;;15.10;6.35;;;19.80;99.90;;;;;;5109445;28;20645;-80
2022/08/05 00:05:36;;;;;;;11.90;6.45;;;19.70;99.90;;;;;;5086773;28;20493;-80
2022/08/05 00:08:02;;;;;;;11.55;6.90;;;19.70;99.90;;;;;;5101734;28;20215;-81
2022/08/05 00:10:28;;;;;;;9.63;6.55;;;19.70;99.90;;;;;;5072192;28;20040;-84
2022/08/05 00:12:53;;;;;;;9.85;6.25;;;19.70;99.90;;;;;;5102758;28;20047;-79
2022/08/05 00:15:19;;;;;;;13.25;6.68;;;19.70;99.90;;;;;;5096055;28;20052;-81
2022/08/05 00:17:45;;;;;;;11.30;6.38;;;19.70;99.90;;;;;;5097728;28;20387;-81
2022/08/05 00:20:11;;;;;;;12.65;6.28;;;19.70;99.90;;;;;;5095542;28;20042;-83
2022/08/05 00:22:36;;;;;;;9.73;6.60;;;19.70;99.90;;;;;;5092175;28;20081;-84
2022/08/05 00:25:03;;;;;;;11.77;6.03;;;19.70;99.90;;;;;;5088364;28;20506;-81
2022/08/05 00:27:29;;;;;;;8.90;5.00;;;19.70;99.90;;;;;;5105578;28;20047;-82
2022/08/05 00:29:55;;;;;;;9.65;5.53;;;19.70;99.90;;;;;;5070015;28;20052;-81
2022/08/05 00:32:21;;;;;;;8.45;5.10;;;19.70;99.90;;;;;;5092192;28;20059;-79
2022/08/05 00:34:47;;;;;;;9.70;5.35;;;19.70;99.90;;;;;;5092875;28;20039;-82
2022/08/05 00:37:12;;;;;;;12.15;4.93;;;19.70;99.90;;;;;;5099685;28;20043;-79
2022/08/05 00:39:41;;;;;;;7.65;4.72;;;19.60;99.90;;;;;;5095350;28;20457;-81
2022/08/05 00:42:07;;;;;;;11.35;5.18;;;19.60;99.90;;;;;;5087540;28;20082;-80
2022/08/05 00:44:32;;;;;;;11.00;5.40;;;19.60;99.90;;;;;;5110696;28;20095;-81
2022/08/05 00:46:58;;;;;;;7.78;5.05;;;19.60;99.90;;;;;;5090376;28;20554;-81
2022/08/05 00:49:24;;;;;;;10.07;5.38;;;19.60;99.90;;;;;;5097629;28;20054;-81
2022/08/05 00:51:49;;;;;;;11.02;5.70;;;19.60;99.90;;;;;;5072012;28;20043;-81
2022/08/05 00:54:15;;;;;;;9.23;5.45;;;19.60;99.90;;;;;;5099264;28;20050;-80
2022/08/05 00:56:41;;;;;;;10.88;5.78;;;19.60;99.90;;;;;;5079207;28;20047;-82
2022/08/05 00:59:06;;;;;;;9.43;5.38;;;19.60;99.90;;;;;;5095618;28;20066;-81
2022/08/05 01:01:32;;;;;;;12.15;5.70;;;19.60;99.90;;;;;;5084341;28;20047;-81
2022/08/05 01:03:58;;;;;;;10.23;5.78;;;19.60;99.90;;;;;;5070360;28;20051;-81
2022/08/05 01:06:24;;;;;;;10.88;5.97;;;19.60;99.90;;;;;;5073352;28;20042;-81
2022/08/05 01:08:49;;;;;;;9.77;5.97;;;19.50;99.90;;;;;;5088764;28;20035;-81
2022/08/05 01:11:27;;;;;;;11.70;6.40;;;19.50;99.90;;;;;;5089202;28;20047;-80
2022/08/05 01:13:58;;;;;;;14.18;6.82;;;19.40;99.90;;;;;;5072449;28;20063;-82
2022/08/05 01:16:47;;;;;;;10.25;6.82;;;19.40;99.90;;;;;;5105572;28;20052;-81
2022/08/05 01:19:21;;;;;;;11.88;6.82;;;19.40;99.90;;;;;;5081337;28;20043;-81
2022/08/05 01:22:10;;;;;;;12.13;6.05;;;19.30;99.90;;;;;;5093329;28;20039;-80
2022/08/05 01:25:10;;;;;;;8.02;5.53;;;19.30;99.90;;;;;;5091467;28;20047;-80
2022/08/05 01:27:54;;;;;;;8.23;6.15;;;19.30;99.90;;;;;;5071258;28;20426;-80
2022/08/05 01:30:21;;;;;;;9.65;5.50;;;19.30;99.90;;;;;;5079628;28;20055;-80
2022/08/05 01:32:49;;;;;;;9.48;6.25;;;19.20;99.90;;;;;;5101011;28;20036;-79
2022/08/05 01:35:24;;;;;;;10.07;5.65;;;19.20;99.90;;;;;;5094334;28;20128;-81
2022/08/05 01:37:53;;;;;;;12.02;6.00;;;19.20;99.90;;;;;;5088508;28;20115;-81
2022/08/05 01:40:22;;;;;;;10.68;6.20;;;19.20;99.90;;;;;;5071911;28;20047;-78
2022/08/05 01:42:50;;;;;;;9.07;6.10;;;19.20;99.90;;;;;;5077435;28;20039;-81
2022/08/05 01:45:19;;;;;;;7.95;5.65;;;19.20;99.90;;;;;;5095643;28;20051;-79
2022/08/05 01:47:47;;;;;;;9.27;6.60;;;19.20;99.90;;;;;;5095324;28;20115;-79
2022/08/05 01:50:37;;;;;;;10.73;7.15;;;19.20;99.90;;;;;;5090496;28;20727;-81
2022/08/05 01:53:07;;;;;;;12.85;7.15;;;19.10;99.90;;;;;;5083954;28;20044;-80
2022/08/05 01:55:35;;;;;;;10.00;6.70;;;19.10;99.90;;;;;;5072200;28;20055;-79
2022/08/05 01:58:04;;;;;;;11.27;7.22;;;19.00;99.90;;;;;;5089440;28;20051;-80
2022/08/05 02:00:34;;;;;;;12.40;6.90;;;19.10;99.90;;;;;;5103531;28;20050;-79
2022/08/05 02:03:24;;;;;;;10.43;7.00;;;19.00;99.90;;;;;;5086642;28;20035;-80
2022/08/05 02:05:52;;;;;;;14.10;7.45;;;19.10;99.90;;;;;;5098366;28;20047;-80
2022/08/05 02:08:19;;;;;;;12.20;7.22;;;19.00;99.90;;;;;;5071047;28;20096;-80
2022/08/05 02:10:50;;;;;;;9.38;5.95;;;19.00;99.90;;;;;;5071333;28;20039;-80
2022/08/05 02:13:29;;;;;;;11.95;7.40;;;19.00;99.90;;;;;;5096121;28;20179;-79
2022/08/05 02:16:09;;;;;;;10.38;7.30;;;19.00;99.90;;;;;;5071224;28;20355;-81
2022/08/05 02:18:41;;;;;;;9.43;6.70;;;19.00;99.90;;;;;;5094048;28;20498;-80
2022/08/05 02:21:17;;;;;;;10.13;6.95;;;18.90;99.90;;;;;;5088930;28;20169;-80
2022/08/05 02:23:46;;;;;;;12.18;7.43;;;19.00;99.90;;;;;;5088733;28;20048;-81
2022/08/05 02:26:15;;;;;;;10.80;6.70;;;19.00;99.90;;;;;;5087900;28;20503;-82
2022/08/05 02:28:43;;;;;;;11.88;7.30;;;19.00;99.90;;;;;;5076537;28;20547;-80
2022/08/05 02:31:15;;;;;;;9.55;6.75;;;19.00;99.90;;;;;;5086731;28;20568;-81
2022/08/05 02:33:49;;;;;;;9.82;6.63;;;19.10;99.90;;;;;;5111518;28;20044;-80
2022/08/05 02:36:19;;;;;;;11.82;6.53;;;19.10;99.90;;;;;;5078016;28;20486;-81
2022/08/05 02:38:46;;;;;;;10.65;6.93;;;19.10;99.90;;;;;;5076959;28;20128;-80
2022/08/05 02:41:14;;;;;;;9.60;7.38;;;19.10;99.90;;;;;;5093280;28;20074;-80
2022/08/05 02:43:42;;;;;;;11.85;7.20;;;19.10;99.90;;;;;;5097975;28;20039;-81
2022/08/05 02:46:08;;;;;;;9.43;6.90;;;19.10;99.90;;;;;;5091064;28;20055;-81
2022/08/05 02:48:34;;;;;;;9.95;7.22;;;19.10;99.90;;;;;;5094290;28;20490;-80
2022/08/05 02:51:01;;;;;;;12.68;7.95;;;19.10;99.90;;;;;;5098107;27;20063;-81
2022/08/05 02:53:31;;;;;;;12.32;6.72;;;19.10;99.90;;;;;;5080099;28;20036;-80
2022/08/05 02:55:57;;;;;;;9.52;7.28;;;19.00;99.90;;;;;;5104389;28;20047;-81
2022/08/05 02:58:24;;;;;;;12.25;7.60;;;19.10;99.90;;;;;;5091990;28;20047;-79
2022/08/05 03:00:53;;;;;;;11.23;7.70;;;19.10;99.90;;;;;;5091366;28;20047;-80
2022/08/05 03:03:20;;;;;;;11.25;8.07;;;19.10;99.90;;;;;;5103539;28;20040;-82
2022/08/05 03:05:47;;;;;;;10.32;7.32;;;19.00;99.90;;;;;;5079764;28;20040;-80
2022/08/05 03:08:14;;;;;;;10.23;7.70;;;19.00;99.90;;;;;;5093461;28;20051;-80
2022/08/05 03:10:43;;;;;;;9.77;7.45;;;19.00;99.90;;;;;;5076791;28;20048;-81
2022/08/05 03:13:14;;;;;;;13.85;7.80;;;19.00;99.90;;;;;;5101048;28;20059;-80
2022/08/05 03:15:47;;;;;;;9.20;6.88;;;19.00;99.90;;;;;;5084414;28;20404;-80
2022/08/05 03:18:13;;;;;;;11.00;8.27;;;19.00;99.90;;;;;;5075762;28;20130;-80
2022/08/05 03:20:39;;;;;;;12.93;7.90;;;19.00;99.90;;;;;;5074478;28;20123;-81
2022/08/05 03:23:08;;;;;;;14.43;7.97;;;19.00;99.90;;;;;;5096008;28;20047;-78
2022/08/05 03:25:35;;;;;;;12.65;7.75;;;18.90;99.90;;;;;;5071762;28;20484;-79
2022/08/05 03:28:03;;;;;;;15.35;7.90;;;19.00;99.90;;;;;;5093726;28;20048;-79
2022/08/05 03:30:33;;;;;;;14.68;8.48;;;18.90;99.90;;;;;;5086425;28;20058;-80
2022/08/05 03:33:05;;;;;;;16.95;8.65;;;18.90;99.90;;;;;;5103584;28;20525;-80
2022/08/05 03:35:31;;;;;;;11.90;8.20;;;18.90;99.90;;;;;;5091477;28;20046;-81
2022/08/05 03:38:01;;;;;;;14.38;7.95;;;18.90;99.90;;;;;;5095587;28;20044;-81
2022/08/05 03:40:28;;;;;;;13.00;8.23;;;18.90;99.90;;;;;;5100834;28;20073;-81
2022/08/05 03:42:53;;;;;;;10.47;8.03;;;18.90;99.90;;;;;;5100900;28;20505;-80
2022/08/05 03:45:19;;;;;;;13.95;8.18;;;18.90;99.90;;;;;;5104242;28;20035;-81
2022/08/05 03:47:45;;;;;;;13.15;7.95;;;18.90;99.90;;;;;;5081341;28;20039;-81
2022/08/05 03:50:11;;;;;;;14.02;8.45;;;18.90;99.90;;;;;;5088141;28;20597;-80
2022/08/05 03:52:43;;;;;;;11.55;8.70;;;18.90;99.90;;;;;;5094950;28;20055;-80
2022/08/05 03:55:20;;;;;;;12.68;8.25;;;18.90;99.90;;;;;;5085582;28;20381;-80
2022/08/05 03:57:47;;;;;;;14.75;8.45;;;18.90;99.90;;;;;;5106132;28;20044;-79
2022/08/05 04:00:15;;;;;;;12.45;8.65;;;18.90;99.90;;;;;;5087845;28;20101;-79
2022/08/05 04:02:47;;;;;;;16.50;9.23;;;18.90;99.90;;;;;;5081030;28;20040;-80
2022/08/05 04:05:13;;;;;;;13.25;8.13;;;18.90;99.90;;;;;;5082603;28;20074;-79
2022/08/05 04:07:40;;;;;;;12.07;8.97;;;18.90;99.90;;;;;;5095371;28;20482;-81
2022/08/05 04:10:07;;;;;;;17.42;8.75;;;18.80;99.90;;;;;;5093344;28;20313;-78
2022/08/05 04:12:33;;;;;;;14.98;8.95;;;18.80;99.90;;;;;;5099693;28;20119;-78
2022/08/05 04:14:58;;;;;;;13.65;8.98;;;18.90;99.90;;;;;;5088078;28;20138;-79
2022/08/05 04:17:24;;;;;;;13.57;8.50;;;18.90;99.90;;;;;;5089166;28;20115;-77
2022/08/05 04:19:50;;;;;;;14.75;8.68;;;18.80;99.90;;;;;;5097188;28;20039;-80
2022/08/05 04:22:16;;;;;;;14.65;8.93;;;18.80;99.90;;;;;;5103409;28;20042;-78
2022/08/05 04:24:43;;;;;;;14.02;9.02;;;18.80;99.90;;;;;;5075045;28;20044;-78
2022/08/05 04:27:09;;;;;;;14.48;9.30;;;18.80;99.90;;;;;;5080670;28;20440;-78
2022/08/05 04:29:35;;;;;;;13.68;9.50;;;18.80;99.90;;;;;;5082973;28;20536;-78
2022/08/05 04:32:01;;;;;;;14.45;9.43;;;18.70;99.90;;;;;;5093464;28;20051;-78
2022/08/05 04:34:26;;;;;;;13.00;8.93;;;18.70;99.90;;;;;;5082857;28;20079;-78
2022/08/05 04:36:55;;;;;;;13.88;9.88;;;18.70;99.90;;;;;;5095483;28;20092;-78
2022/08/05 04:39:20;;;;;;;15.95;10.38;;;18.70;99.90;;;;;;5090003;28;20075;-78
2022/08/05 04:41:46;;;;;;;15.40;9.73;;;18.70;99.90;;;;;;5093941;28;20071;-77
2022/08/05 04:44:13;;;;;;;15.00;10.18;;;18.70;99.90;;;;;;5095174;28;20052;-78
2022/08/05 04:46:39;;;;;;;16.23;9.35;;;18.60;99.90;;;;;;5070071;28;20040;-78
2022/08/05 04:49:06;;;;;;;15.52;9.82;;;18.60;99.90;;;;;;5093272;28;20043;-78
2022/08/05 04:51:31;;;;;;;15.27;10.30;;;18.70;99.90;;;;;;5073466;28;20043;-78
2022/08/05 04:53:58;;;;;;;13.77;9.30;;;18.60;99.90;;;;;;5091464;28;20047;-79
2022/08/05 04:56:24;;;;;;;14.15;9.65;;;18.60;99.90;;;;;;5096100;28;20122;-78
2022/08/05 04:58:50;;;;;;;16.00;10.18;;;18.70;99.90;;;;;;5100353;28;20123;-79
2022/08/05 05:01:15;;;;;;;14.27;10.23;;;18.70;99.90;;;;;;5076102;28;20497;-78
2022/08/05 05:03:41;;;;;;;20.33;10.82;;;18.70;99.90;;;;;;5100350;28;20118;-78
2022/08/05 05:06:11;;;;;;;15.48;10.77;;;18.70;99.90;;;;;;5098415;28;20540;-79
2022/08/05 05:08:37;;;;;;;12.07;9.68;;;18.70;99.90;;;;;;5101817;28;20130;-78
2022/08/05 05:11:03;;;;;;;16.25;10.45;;;18.70;99.90;;;;;;5086490;28;20032;-78
2022/08/05 05:13:29;;;;;;;14.15;10.05;;;18.70;99.90;;;;;;5094164;28;20047;-78
2022/08/05 05:15:54;;;;;;;16.05;9.90;;;18.60;99.90;;;;;;5068379;28;20036;-79
2022/08/05 05:18:20;;;;;;;14.32;10.23;;;18.60;99.90;;;;;;5101623;28;20419;-77
2022/08/05 05:20:46;;;;;;;15.85;10.93;;;18.60;99.90;;;;;;5092256;28;20038;-78
2022/08/05 05:23:12;;;;;;;13.55;9.77;;;18.60;99.90;;;;;;5096112;28;20105;-79
2022/08/05 05:25:42;;;;;;;14.93;9.88;;;18.60;99.90;;;;;;5085348;28;20036;-81
2022/08/05 05:28:11;;;;;;;14.68;9.30;;;18.60;99.90;;;;;;5088587;28;20044;-80
2022/08/05 05:30:38;;;;;;;14.50;9.32;;;18.60;99.90;;;;;;5090967;28;20127;-81
2022/08/05 05:33:05;;;;;;;14.27;8.60;;;18.70;99.90;;;;;;5092059;28;20048;-80
2022/08/05 05:35:31;;;;;;;;;;;18.70;99.90;;;;;;5091069;28;20115;-80
2022/08/05 05:37:59;;;;;;;17.90;9.40;;;18.60;99.90;;;;;;5087324;28;19935;-81
2022/08/05 05:40:26;;;;;;;12.73;8.18;;;18.60;99.90;;;;;;5075610;28;20124;-80
2022/08/05 05:42:53;;;;;;;13.38;8.35;;;18.70;99.90;;;;;;5092923;28;20040;-81
2022/08/05 05:45:19;;;;;;;12.80;8.63;;;18.70;99.90;;;;;;5087773;28;20576;-79
2022/08/05 05:47:45;;;;;;;12.20;8.02;;;18.70;99.90;;;;;;5084356;28;20132;-80
2022/08/05 05:50:16;;;;;;;11.32;8.32;;;18.80;99.90;;;;;;5100728;28;20036;-80
2022/08/05 05:52:43;;;;;;;12.30;8.13;;;18.80;99.90;;;;;;5068409;28;20486;-79
2022/08/05 05:55:10;;;;;;;11.07;7.50;;;18.70;99.90;;;;;;5075407;28;20119;-80
2022/08/05 05:57:37;;;;;;;15.13;8.45;;;18.70;99.90;;;;;;5095867;28;20471;-78
2022/08/05 06:00:05;;;;;;;14.73;9.13;;;18.70;99.90;;;;;;5096971;28;20425;-75
2022/08/05 06:02:31;;;;;;;12.07;7.85;;;18.70;99.90;;;;;;5091841;28;20496;-74
2022/08/05 06:04:57;;;;;;;13.65;7.50;;;18.70;99.90;;;;;;5079314;28;20101;-74
2022/08/05 06:07:28;;;;;;;15.30;7.80;;;18.70;99.90;;;;;;5092629;28;20044;-75
2022/08/05 06:09:54;;;;;;;11.10;7.38;;;18.70;99.90;;;;;;5081008;28;20048;-74
2022/08/05 06:12:20;;;;;;;11.05;7.80;;;18.70;99.90;;;;;;5095076;28;20035;-74
2022/08/05 06:14:46;;;;;;;11.15;7.93;;;18.70;99.90;;;;;;5097743;27;20059;-72
2022/08/05 06:17:12;;;;;;;12.52;8.55;;;18.70;99.90;;;;;;5100823;28;20048;-76
2022/08/05 06:19:38;;;;;;;12.80;8.15;;;18.70;99.90;;;;;;5097506;28;20443;-75
2022/08/05 06:22:04;;;;;;;10.50;7.10;;;18.70;99.90;;;;;;5075912;28;20347;-75
2022/08/05 06:24:31;;;;;;;12.98;7.47;;;18.70;99.90;;;;;;5079830;28;20482;-74
2022/08/05 06:26:57;;;;;;;9.80;6.90;;;18.70;99.90;;;;;;5093105;28;20395;-76
2022/08/05 06:29:25;;;;;;;11.13;6.57;;;18.70;99.90;;;;;;5084877;28;20058;-76
2022/08/05 06:31:52;;;;;;;11.38;6.85;;;18.80;99.90;;;;;;5101090;28;20507;-75
2022/08/05 06:34:18;;;;;;;12.43;6.68;;;18.80;99.90;;;;;;5075301;28;20048;-76
2022/08/05 06:36:44;;;;;;;8.82;6.20;;;18.80;99.90;;;;;;5102799;28;20051;-75
2022/08/05 06:39:09;;;;;;;11.95;5.93;;;18.90;99.90;;;;;;5097189;28;20066;-75
2022/08/05 06:41:35;;;;;;;12.77;6.35;;;18.90;99.90;;;;;;5098183;28;20415;-76
2022/08/05 06:44:01;;;;;;;10.05;6.15;;;19.00;99.90;;;;;;5092183;27;20032;-75
2022/08/05 06:46:27;;;;;;;10.95;5.68;;;19.00;99.90;;;;;;5072270;28;20048;-75
2022/08/05 06:48:52;;;;;;;8.70;5.30;;;19.10;99.90;;;;;;5102449;28;20055;-75
2022/08/05 06:51:24;;;;;;;9.40;5.50;;;19.10;99.90;;;;;;5101253;28;20118;-76
2022/08/05 06:53:50;;;;;;;10.93;6.00;;;19.20;99.90;;;;;;5096335;28;20079;-76
2022/08/05 06:56:17;;;;;;;8.15;5.68;;;19.20;99.90;;;;;;5102041;28;20113;-75
2022/08/05 06:58:43;;;;;;;8.77;5.55;;;19.20;99.90;;;;;;5082316;28;20081;-76
2022/08/05 07:01:09;;;;;;;11.77;5.50;;;19.30;99.90;;;;;;5080851;28;20051;-76
2022/08/05 07:03:35;;;;;;;10.75;5.90;;;19.20;99.90;;;;;;5083767;28;20044;-81
2022/08/05 07:06:03;;;;;;;7.22;5.07;;;19.20;99.90;;;;;;5103965;28;20391;-76
2022/08/05 07:08:29;;;;;;;8.90;4.95;;;19.20;99.90;;;;;;5076708;28;20051;-83
2022/08/05 07:10:55;;;;;;;12.85;5.80;;;19.20;99.90;;;;;;5093942;28;20040;-83
2022/08/05 07:18:53;;;;;;;11.80;4.97;;;19.30;99.90;;;;;;5092933;28;20052;-86
2022/08/05 07:21:18;;;;;;;11.02;5.25;;;19.30;99.90;;;;;;5092057;28;20051;-84
2022/08/05 07:23:44;;;;;;;10.40;5.47;;;19.30;99.90;;;;;;5074707;28;21005;-81
2022/08/05 07:26:10;;;;;;;10.55;5.60;;;19.30;99.90;;;;;;5087274;28;20051;-84
2022/08/05 07:28:35;;;;;;;8.15;4.60;;;19.30;99.90;;;;;;5081662;28;20072;-86
2022/08/05 07:31:01;;;;;;;11.07;5.13;;;19.30;99.90;;;;;;5072874;28;20410;-87
2022/08/05 07:33:27;;;;;;;8.55;4.60;;;19.30;99.90;;;;;;5081573;28;20168;-85
2022/08/05 07:35:52;;;;;;;10.18;5.20;;;19.30;99.90;;;;;;5106705;28;20166;-83
2022/08/05 07:38:18;;;;;;;10.32;4.85;;;19.40;99.90;;;;;;5084497;28;20044;-83
2022/08/05 07:40:44;;;;;;;8.40;5.03;;;19.40;99.90;;;;;;5074032;28;20104;-85
2022/08/05 07:43:12;;;;;;;8.18;4.75;;;19.50;99.90;;;;;;5091573;28;20675;-87
2022/08/05 07:45:38;;;;;;;8.30;4.22;;;19.40;99.90;;;;;;5077645;28;20047;-79
2022/08/05 07:48:04;;;;;;;6.57;3.72;;;19.50;99.90;;;;;;5109351;28;20054;-78
2022/08/05 07:50:30;;;;;;;8.43;4.25;;;19.50;99.90;;;;;;5106710;28;20040;-75
2022/08/05 07:52:56;;;;;;;8.90;3.90;;;19.60;99.90;;;;;;5099339;28;20136;-83
2022/08/05 07:55:21;;;;;;;9.88;4.22;;;19.60;99.90;;;;;;5093861;28;20036;-80
2022/08/05 07:57:47;;;;;;;5.95;3.35;;;19.70;99.90;;;;;;5093726;28;20585;-86
2022/08/05 08:00:13;;;;;;;6.72;3.50;;;19.70;99.90;;;;;;5083265;28;20852;-79
2022/08/05 08:02:39;;;;;;;7.03;3.53;;;19.80;99.90;;;;;;5106413;28;20503;-80
2022/08/05 08:05:06;;;;;;;5.80;3.30;;;19.90;99.90;;;;;;5075599;28;20044;-78
2022/08/05 08:07:31;;;;;;;7.87;3.70;;;19.90;99.90;;;;;;5106336;28;20548;-80
2022/08/05 08:09:57;;;;;;;8.07;3.40;;;20.00;99.90;;;;;;5095717;28;20433;-79
2022/08/05 08:12:23;;;;;;;7.43;3.58;;;20.00;99.90;;;;;;5073897;28;20052;-81
2022/08/05 08:14:49;;;;;;;7.57;3.47;;;20.10;99.90;;;;;;5077485;28;20116;-76
2022/08/05 08:17:14;;;;;;;5.45;2.97;;;20.10;99.90;;;;;;5085266;28;20048;-74
2022/08/05 08:19:41;;;;;;;7.32;3.10;;;20.20;99.90;;;;;;5084171;28;20314;-74
2022/08/05 08:22:07;;;;;;;8.25;3.05;;;20.20;99.90;;;;;;5088079;28;20048;-80
2022/08/05 08:24:34;;;;;;;7.17;2.30;;;20.20;99.90;;;;;;5092835;28;20091;-80
2022/08/05 08:27:00;;;;;;;6.80;2.40;;;20.20;99.90;;;;;;5090474;28;20126;-78
2022/08/05 08:29:26;;;;;;;6.13;2.47;;;20.20;99.90;;;;;;5090685;28;20282;-77
2022/08/05 08:31:52;;;;;;;4.55;2.38;;;20.30;99.90;;;;;;5088837;28;20051;-77
2022/08/05 08:34:22;;;;;;;4.60;2.22;;;20.40;99.90;;;;;;5091758;28;20123;-78
2022/08/05 08:36:48;;;;;;;7.38;2.88;;;20.50;99.90;;;;;;5089587;28;20111;-78
2022/08/05 08:39:16;;;;;;;4.97;1.88;;;20.40;99.90;;;;;;5086703;28;20127;-79
2022/08/05 08:41:44;;;;;;;8.18;2.10;;;20.50;99.90;;;;;;5085797;28;20478;-76
2022/08/05 08:44:19;;;;;;;;;;;20.60;99.90;;;;;;5097732;28;20694;-77
2022/08/05 08:46:46;;;;;;;7.40;2.65;;;20.60;99.90;;;;;;5079102;28;19927;-80
2022/08/05 08:49:13;;;;;;;6.97;2.40;;;20.70;99.90;;;;;;5107537;28;20048;-76
2022/08/05 08:51:41;;;;;;;4.40;2.10;;;20.70;99.90;;;;;;5090779;28;20150;-76
2022/08/05 08:54:07;;;;;;;4.53;1.88;;;20.70;99.90;;;;;;5103699;28;20046;-76
2022/08/05 08:56:33;;;;;;;4.68;1.80;;;20.60;99.90;;;;;;5075460;28;20123;-77
2022/08/05 08:58:59;;;;;;;5.75;2.45;;;20.70;99.90;;;;;;5106662;28;20236;-75
2022/08/05 09:01:25;;;;;;;6.00;2.53;;;20.80;99.90;;;;;;5095391;28;20074;-76
2022/08/05 09:03:53;;;;;;;7.65;2.60;;;20.80;99.90;;;;;;5078656;28;20700;-80
2022/08/05 09:06:21;;;;;;;6.65;2.50;;;20.90;99.90;;;;;;5104125;28;20043;-78
2022/08/05 09:08:48;;;;;;;6.15;2.35;;;20.90;99.90;;;;;;5086245;28;20178;-78
2022/08/05 09:11:14;;;;;;;5.80;2.42;;;20.90;99.90;;;;;;5090609;28;20063;-75
2022/08/05 09:13:41;;;;;;;5.70;2.17;;;20.90;99.90;;;;;;5087563;28;20044;-77
2022/08/05 09:16:11;;;;;;;7.63;2.20;;;20.90;99.90;;;;;;5095907;28;20323;-77
2022/08/05 09:18:38;;;;;;;5.63;2.25;;;20.90;99.90;;;;;;5090936;28;20137;-82
2022/08/05 09:21:04;;;;;;;6.55;2.45;;;20.80;99.90;;;;;;5107393;28;20052;-79
2022/08/05 09:23:30;;;;;;;5.75;2.15;;;20.80;99.90;;;;;;5110694;28;20166;-79
2022/08/05 09:26:16;;;;;;;4.20;2.35;;;20.80;99.90;;;;;;5089663;28;20130;-79
2022/08/05 09:28:45;;;;;;;5.68;2.05;;;20.90;99.90;;;;;;5085848;28;20601;-81
2022/08/05 09:31:14;;;;;;;5.40;2.13;;;20.90;99.90;;;;;;5094264;28;20040;-81
2022/08/05 09:34:08;;;;;;;5.60;1.90;;;21.00;99.90;;;;;;5070972;28;20086;-82
2022/08/05 09:36:42;;;;;;;6.70;2.40;;;21.10;99.90;;;;;;5102247;28;20063;-83
2022/08/05 09:39:11;;;;;;;4.63;1.65;;;21.10;99.90;;;;;;5091027;28;20765;-81
2022/08/05 09:42:02;;;;;;;3.45;1.45;;;21.20;99.90;;;;;;5105892;28;20044;-80
2022/08/05 09:44:40;;;;;;;5.85;1.77;;;21.20;99.90;;;;;;5102168;28;20054;-81
2022/08/05 09:47:14;;;;;;;4.40;1.50;;;21.20;99.90;;;;;;5096844;28;20059;-81
2022/08/05 09:49:54;;;;;;;4.65;1.60;;;21.20;99.90;;;;;;5104774;28;20062;-81
2022/08/05 09:52:19;;;;;;;3.30;1.30;;;21.20;99.90;;;;;;5099870;28;20051;-80
2022/08/05 09:54:55;;;;;;;3.05;1.55;;;21.30;99.90;;;;;;5109526;28;20066;-80
2022/08/05 09:57:39;;;;;;;3.70;1.53;;;21.30;99.90;;;;;;5098821;28;20085;-81
2022/08/05 10:00:13;;;;;;;2.72;1.45;;;21.50;99.90;;;;;;5088606;28;20051;-80
2022/08/05 10:02:50;;;;;;;4.50;1.70;;;21.50;99.90;;;;;;5085815;28;20561;-81
2022/08/05 10:05:27;;;;;;;3.60;1.30;;;21.60;99.90;;;;;;5074189;28;20047;-81
2022/08/05 10:08:04;;;;;;;4.32;1.45;;;21.90;99.90;;;;;;5092182;28;20036;-84
2022/08/05 10:11:12;;;;;;;2.47;1.10;;;22.00;99.90;;;;;;5082931;28;20750;-81
2022/08/05 10:13:39;;;;;;;3.63;1.10;;;21.90;99.90;;;;;;5106160;28;20079;-86
2022/08/05 10:16:06;;;;;;;3.25;1.05;;;21.90;99.90;;;;;;5086487;28;20134;-90
2022/08/05 10:18:33;;;;;;;4.25;1.40;;;21.90;99.90;;;;;;5090181;28;20040;-83
2022/08/05 10:21:15;;;;;;;3.60;1.23;;;21.80;99.90;;;;;;5094922;28;20044;-85
2022/08/05 10:23:44;;;;;;;5.10;1.40;;;21.90;99.90;;;;;;5101529;28;20055;-81
2022/08/05 10:26:11;;;;;;;4.03;1.55;;;22.10;99.90;;;;;;5088657;28;20126;-78
2022/08/05 10:28:37;;;;;;;3.15;1.20;;;22.20;99.90;;;;;;5090893;28;20427;-76
2022/08/05 10:31:03;;;;;;;3.53;1.50;;;22.30;99.90;;;;;;5076576;28;20055;-82
2022/08/05 10:33:31;;;;;;;3.13;1.00;;;22.40;99.90;;;;;;5084335;28;20036;-80
2022/08/05 10:35:57;;;;;;;;;;;22.40;99.90;;;;;;5087431;28;20047;-82
2022/08/05 10:38:25;;;;;;;2.97;1.02;;;22.30;99.90;;;;;;5098916;28;19927;-81
2022/08/05 10:40:51;;;;;;;3.90;1.05;;;22.30;99.90;;;;;;5080033;28;20058;-83
2022/08/05 10:43:35;;;;;;;2.60;1.00;;;22.20;99.90;;;;;;5075724;28;20044;-79
2022/08/05 10:46:04;;;;;;;2.50;0.68;;;22.00;96.50;;;;;;5082932;28;20040;-83
2022/08/05 10:48:36;;;;;;;4.10;0.90;;;22.00;98.20;;;;;;5097610;28;20104;-83
2022/08/05 10:51:11;;;;;;;1.95;0.77;;;22.20;99.90;;;;;;5109957;28;20054;-81
2022/08/05 10:53:43;;;;;;;3.17;0.80;;;22.40;97.90;;;;;;5097031;28;20042;-84
2022/08/05 10:56:21;;;;;;;2.75;0.90;;;22.50;95.10;;;;;;5091044;28;20044;-83
2022/08/05 10:58:48;;;;;;;1.50;0.60;;;22.70;91.90;;;;;;5084398;28;20101;-90
2022/08/05 11:01:14;;;;;;;;;;;22.80;94.40;;;;;;5101805;27;20123;-87
2022/08/05 11:04:20;;;;;;;2.30;1.10;;;22.80;72.20;;;;;;5104031;28;20010;-85
2022/08/05 11:07:03;;;;;;;1.88;0.70;;;22.90;89.40;;;;;;5083715;28;20054;-82
2022/08/05 11:09:45;;;;;;;3.15;1.05;;;23.00;89.10;;;;;;5080546;28;20126;-83
2022/08/05 11:12:23;;;;;;;2.80;0.90;;;23.00;92.30;;;;;;5094314;28;20082;-72
2022/08/05 11:15:05;;;;;;;2.40;0.80;;;23.00;86.70;;;;;;5110351;28;20064;-77
2022/08/05 11:17:37;;;;;;;1.88;0.77;;;23.00;79.70;;;;;;5077131;28;20103;-80
2022/08/05 11:20:07;;;;;;;2.15;0.60;;;22.90;79.00;;;;;;5091786;28;20094;-75
2022/08/05 11:22:47;;;;;;;4.00;1.42;;;22.80;81.70;;;;;;5079026;28;20035;-79
2022/08/05 11:25:43;;;;;;;3.58;0.60;;;22.70;60.00;;;;;;5090346;28;20042;-81
2022/08/05 11:28:08;;;;;;;4.10;0.80;;;22.70;63.70;;;;;;5108810;28;20569;-80
2022/08/05 11:30:55;;;;;;;3.17;0.80;;;22.70;66.30;;;;;;5107909;28;20097;-81
2022/08/05 11:33:27;;;;;;;1.83;0.60;;;22.80;59.80;;;;;;5079551;28;20132;-74
2022/08/05 11:35:58;;;;;;;3.22;0.60;;;22.80;63.00;;;;;;5090140;28;20047;-80
2022/08/05 11:38:42;;;;;;;1.83;0.80;;;22.90;64.00;;;;;;5106733;28;20044;-75
2022/08/05 11:41:20;;;;;;;1.38;0.50;;;23.00;61.10;;;;;;5092095;28;20309;-72
2022/08/05 11:44:09;;;;;;;1.17;0.60;;;23.00;60.50;;;;;;5080102;28;20082;-81
2022/08/05 11:46:36;;;;;;;2.30;0.73;;;23.10;59.10;;;;;;5101274;27;20035;-78
2022/08/05 11:49:03;;;;;;;4.65;0.90;;;23.10;58.10;;;;;;5092060;28;20100;-78
2022/08/05 11:51:30;;;;;;;1.10;0.60;;;23.20;60.00;;;;;;5087215;28;20047;-78
2022/08/05 11:53:56;;;;;;;2.33;0.40;;;23.20;56.40;;;;;;5075501;28;20079;-77
2022/08/05 11:56:23;;;;;;;4.05;0.60;;;23.20;56.10;;;;;;5077716;28;20494;-81
2022/08/05 11:58:49;;;;;;;1.60;0.65;;;23.30;58.40;;;;;;5095588;28;20039;-81
2022/08/05 12:01:20;;;;;;;4.30;0.70;;;23.40;60.80;;;;;;5079157;27;20087;-83
2022/08/05 12:03:48;;;;;;;1.35;0.50;;;23.50;52.90;;;;;;5082936;28;20051;-86
2022/08/05 12:06:15;;;;;;;2.80;0.60;;;23.50;51.00;;;;;;5108407;28;20059;-88
2022/08/05 12:08:51;;;;;;;2.00;0.40;;;23.40;50.30;;;;;;5097577;28;20031;-82
2022/08/05 12:11:24;;;;;;;2.05;0.50;;;23.40;50.80;;;;;;5099289;28;20048;-82
2022/08/05 12:13:59;;;;;;;2.92;0.70;;;23.40;51.30;;;;;;5105642;28;20109;-86
2022/08/05 12:16:33;;;;;;;1.48;0.50;;;23.50;50.80;;;;;;5089924;28;20059;-78
2022/08/05 12:18:59;;;;;;;2.85;0.90;;;23.60;50.90;;;;;;5090215;28;20425;-78
2022/08/05 12:21:45;;;;;;;0.60;0.40;;;23.70;49.50;;;;;;5094849;28;20036;-75
2022/08/05 12:24:16;;;;;;;;;;;23.60;48.10;;;;;;5071133;28;20487;-78
2022/08/05 12:26:46;;;;;;;1.27;0.50;;;23.50;46.10;;;;;;5091117;28;20028;-77
2022/08/05 12:29:15;;;;;;;3.38;0.63;;;23.40;46.40;;;;;;5087917;28;20047;-75
2022/08/05 12:31:47;;;;;;;3.28;0.50;;;23.30;47.40;;;;;;5102495;28;20035;-78
2022/08/05 12:34:14;;;;;;;2.67;0.55;;;23.30;47.50;;;;;;5092486;28;20101;-80
2022/08/05 12:36:41;;;;;;;1.95;0.50;;;23.40;48.30;;;;;;5088105;28;20040;-79
2022/08/05 12:39:07;;;;;;;2.30;0.50;;;23.60;48.50;;;;;;5108541;28;20112;-79
2022/08/05 12:41:35;;;;;;;0.80;0.40;;;23.70;48.60;;;;;;5089473;28;20487;-79
2022/08/05 12:44:03;;;;;;;1.95;0.52;;;23.80;48.00;;;;;;5099367;28;20035;-80
2022/08/05 12:46:31;;;;;;;1.20;0.50;;;23.70;46.70;;;;;;5106192;28;20039;-82
2022/08/05 12:49:00;;;;;;;1.20;0.50;;;23.50;46.50;;;;;;5090286;28;20078;-80
2022/08/05 12:51:27;;;;;;;2.85;0.50;;;23.30;47.70;;;;;;5080545;28;20509;-78
2022/08/05 12:53:59;;;;;;;2.47;0.50;;;23.30;49.00;;;;;;5105121;28;20046;-81
2022/08/05 12:56:25;;;;;;;3.25;0.52;;;23.30;49.60;;;;;;5078517;28;20134;-81
2022/08/05 12:59:13;;;;;;;1.05;0.50;;;23.30;49.80;;;;;;5107329;28;20103;-80